sensor_id;sensor_type;location;lat;lon;timestamp;P1;durP1;ratioP1;P2;durP2;ratioP2
489;SDS011;231;48.120;11.576;2023-07-09T00:00:15;10.60;;;10.03;;
489;SDS011;231;48.120;11.576;2023-07-09T00:02:44;12.30;;;10.53;;
489;SDS011;231;48.120;11.576;2023-07-09T00:05:11;12.30;;;10.77;;
489;SDS011;231;48.120;11.576;2023-07-09T00:07:42;10.30;;;9.80;;
489;SDS011;231;48.120;11.576;2023-07-09T00:10:14;9.20;;;8.70;;
489;SDS011;231;48.120;11.576;2023-07-09T00:12:42;10.43;;;9.23;;
489;SDS011;231;48.120;11.576;2023-07-09T00:15:10;11.47;;;10.63;;
489;SDS011;231;48.120;11.576;2023-07-09T00:17:37;12.40;;;9.93;;
489;SDS011;231;48.120;11.576;2023-07-09T00:20:06;10.77;;;9.23;;
489;SDS011;231;48.120;11.576;2023-07-09T00:22:38;12.13;;;10.20;;
489;SDS011;231;48.120;11.576;2023-07-09T00:25:09;10.00;;;9.50;;
489;SDS011;231;48.120;11.576;2023-07-09T00:27:38;9.30;;;8.80;;
489;SDS011;231;48.120;11.576;2023-07-09T00:30:11;10.47;;;8.73;;
489;SDS011;231;48.120;11.576;2023-07-09T00:32:42;9.97;;;9.47;;
489;SDS011;231;48.120;11.576;2023-07-09T00:35:09;12.33;;;10.40;;
489;SDS011;231;48.120;11.576;2023-07-09T00:37:37;10.03;;;9.53;;
489;SDS011;231;48.120;11.576;2023-07-09T00:40:08;11.07;;;9.73;;
489;SDS011;231;48.120;11.576;2023-07-09T00:42:42;9.47;;;8.97;;
489;SDS011;231;48.120;11.576;2023-07-09T00:45:15;11.97;;;9.50;;
489;SDS011;231;48.120;11.576;2023-07-09T00:47:44;9.20;;;8.70;;
489;SDS011;231;48.120;11.576;2023-07-09T00:50:21;11.30;;;10.70;;
489;SDS011;231;48.120;11.576;2023-07-09T00:52:59;9.90;;;9.40;;
489;SDS011;231;48.120;11.576;2023-07-09T00:55:34;9.67;;;9.17;;
489;SDS011;231;48.120;11.576;2023-07-09T00:58:07;10.07;;;9.30;;
489;SDS011;231;48.120;11.576;2023-07-09T01:00:38;10.30;;;8.20;;
489;SDS011;231;48.120;11.576;2023-07-09T01:03:13;10.00;;;9.37;;
489;SDS011;231;48.120;11.576;2023-07-09T01:05:46;9.30;;;8.80;;
489;SDS011;231;48.120;11.576;2023-07-09T01:08:16;10.33;;;9.83;;
489;SDS011;231;48.120;11.576;2023-07-09T01:10:46;9.00;;;8.50;;
489;SDS011;231;48.120;11.576;2023-07-09T01:13:14;10.93;;;9.43;;
489;SDS011;231;48.120;11.576;2023-07-09T01:15:43;9.60;;;8.80;;
489;SDS011;231;48.120;11.576;2023-07-09T01:18:11;9.00;;;8.50;;
489;SDS011;231;48.120;11.576;2023-07-09T01:20:39;10.20;;;9.13;;
489;SDS011;231;48.120;11.576;2023-07-09T01:23:08;9.47;;;7.90;;
489;SDS011;231;48.120;11.576;2023-07-09T01:25:36;8.90;;;8.50;;
489;SDS011;231;48.120;11.576;2023-07-09T01:28:07;8.47;;;8.00;;
489;SDS011;231;48.120;11.576;2023-07-09T01:30:35;8.63;;;8.13;;
489;SDS011;231;48.120;11.576;2023-07-09T01:33:04;9.70;;;8.00;;
489;SDS011;231;48.120;11.576;2023-07-09T01:35:33;9.33;;;8.50;;
489;SDS011;231;48.120;11.576;2023-07-09T01:38:02;8.67;;;8.17;;
489;SDS011;231;48.120;11.576;2023-07-09T01:40:33;11.10;;;9.90;;
489;SDS011;231;48.120;11.576;2023-07-09T01:43:01;8.33;;;7.73;;
489;SDS011;231;48.120;11.576;2023-07-09T01:45:31;9.67;;;9.17;;
489;SDS011;231;48.120;11.576;2023-07-09T01:47:58;9.30;;;8.80;;
489;SDS011;231;48.120;11.576;2023-07-09T01:50:25;13.07;;;8.70;;
489;SDS011;231;48.120;11.576;2023-07-09T01:52:52;9.83;;;8.33;;
489;SDS011;231;48.120;11.576;2023-07-09T01:55:20;8.60;;;8.10;;
489;SDS011;231;48.120;11.576;2023-07-09T01:57:49;9.27;;;8.77;;
489;SDS011;231;48.120;11.576;2023-07-09T02:00:17;8.90;;;8.40;;
489;SDS011;231;48.120;11.576;2023-07-09T02:02:45;10.87;;;8.50;;
489;SDS011;231;48.120;11.576;2023-07-09T02:05:13;9.07;;;8.57;;
489;SDS011;231;48.120;11.576;2023-07-09T02:07:43;9.73;;;8.80;;
489;SDS011;231;48.120;11.576;2023-07-09T02:10:10;9.40;;;8.90;;
489;SDS011;231;48.120;11.576;2023-07-09T02:12:38;7.77;;;7.37;;
489;SDS011;231;48.120;11.576;2023-07-09T02:15:07;8.43;;;8.00;;
489;SDS011;231;48.120;11.576;2023-07-09T02:17:34;8.67;;;8.17;;
489;SDS011;231;48.120;11.576;2023-07-09T02:20:01;8.57;;;7.47;;
489;SDS011;231;48.120;11.576;2023-07-09T02:22:30;8.87;;;8.37;;
489;SDS011;231;48.120;11.576;2023-07-09T02:24:57;9.33;;;8.83;;
489;SDS011;231;48.120;11.576;2023-07-09T02:27:25;8.47;;;7.40;;
489;SDS011;231;48.120;11.576;2023-07-09T02:29:52;10.70;;;8.90;;
489;SDS011;231;48.120;11.576;2023-07-09T02:32:22;7.33;;;6.93;;
489;SDS011;231;48.120;11.576;2023-07-09T02:34:52;9.10;;;8.47;;
489;SDS011;231;48.120;11.576;2023-07-09T02:37:20;7.53;;;7.13;;
489;SDS011;231;48.120;11.576;2023-07-09T02:39:48;9.83;;;9.33;;
489;SDS011;231;48.120;11.576;2023-07-09T02:42:16;6.60;;;6.20;;
489;SDS011;231;48.120;11.576;2023-07-09T02:44:45;9.00;;;7.63;;
489;SDS011;231;48.120;11.576;2023-07-09T02:47:12;8.90;;;8.13;;
489;SDS011;231;48.120;11.576;2023-07-09T02:49:42;7.80;;;7.40;;
489;SDS011;231;48.120;11.576;2023-07-09T02:52:09;8.33;;;7.90;;
489;SDS011;231;48.120;11.576;2023-07-09T02:54:36;7.73;;;7.33;;
489;SDS011;231;48.120;11.576;2023-07-09T02:57:07;8.50;;;8.03;;
489;SDS011;231;48.120;11.576;2023-07-09T03:02:23;8.83;;;8.33;;
489;SDS011;231;48.120;11.576;2023-07-09T03:05:16;9.47;;;8.33;;
489;SDS011;231;48.120;11.576;2023-07-09T03:08:08;8.90;;;7.77;;
489;SDS011;231;48.120;11.576;2023-07-09T03:10:41;9.10;;;8.60;;
489;SDS011;231;48.120;11.576;2023-07-09T03:13:08;11.90;;;8.37;;
489;SDS011;231;48.120;11.576;2023-07-09T03:15:35;9.00;;;8.50;;
489;SDS011;231;48.120;11.576;2023-07-09T03:18:02;8.70;;;8.20;;
489;SDS011;231;48.120;11.576;2023-07-09T03:20:34;9.37;;;8.10;;
489;SDS011;231;48.120;11.576;2023-07-09T03:23:06;9.10;;;8.37;;
489;SDS011;231;48.120;11.576;2023-07-09T03:25:40;7.80;;;7.40;;
489;SDS011;231;48.120;11.576;2023-07-09T03:28:07;8.60;;;8.10;;
489;SDS011;231;48.120;11.576;2023-07-09T03:30:39;8.57;;;8.07;;
489;SDS011;231;48.120;11.576;2023-07-09T03:33:09;8.10;;;7.70;;
489;SDS011;231;48.120;11.576;2023-07-09T03:35:41;11.53;;;9.00;;
489;SDS011;231;48.120;11.576;2023-07-09T03:38:17;7.60;;;7.20;;
489;SDS011;231;48.120;11.576;2023-07-09T03:40:49;12.60;;;9.00;;
489;SDS011;231;48.120;11.576;2023-07-09T03:43:24;9.43;;;8.33;;
489;SDS011;231;48.120;11.576;2023-07-09T03:45:57;10.37;;;8.77;;
489;SDS011;231;48.120;11.576;2023-07-09T03:48:27;8.70;;;8.20;;
489;SDS011;231;48.120;11.576;2023-07-09T03:51:04;9.57;;;8.77;;
489;SDS011;231;48.120;11.576;2023-07-09T03:53:48;9.07;;;8.57;;
489;SDS011;231;48.120;11.576;2023-07-09T03:56:35;9.93;;;8.20;;
489;SDS011;231;48.120;11.576;2023-07-09T03:59:34;9.13;;;8.67;;
489;SDS011;231;48.120;11.576;2023-07-09T04:02:11;10.93;;;8.30;;
489;SDS011;231;48.120;11.576;2023-07-09T04:04:46;10.17;;;7.70;;
489;SDS011;231;48.120;11.576;2023-07-09T04:07:43;8.60;;;8.10;;
489;SDS011;231;48.120;11.576;2023-07-09T04:10:15;8.60;;;7.17;;
489;SDS011;231;48.120;11.576;2023-07-09T04:13:09;9.30;;;8.60;;
489;SDS011;231;48.120;11.576;2023-07-09T04:15:43;7.53;;;7.03;;
489;SDS011;231;48.120;11.576;2023-07-09T04:18:35;10.90;;;7.67;;
489;SDS011;231;48.120;11.576;2023-07-09T04:21:28;8.10;;;7.70;;
489;SDS011;231;48.120;11.576;2023-07-09T04:26:59;8.83;;;7.57;;
489;SDS011;231;48.120;11.576;2023-07-09T04:29:44;10.90;;;7.80;;
489;SDS011;231;48.120;11.576;2023-07-09T04:32:17;8.70;;;7.37;;
489;SDS011;231;48.120;11.576;2023-07-09T04:34:49;7.70;;;7.30;;
489;SDS011;231;48.120;11.576;2023-07-09T04:37:24;7.03;;;6.50;;
489;SDS011;231;48.120;11.576;2023-07-09T04:40:17;7.80;;;7.40;;
489;SDS011;231;48.120;11.576;2023-07-09T04:42:52;9.10;;;8.63;;
489;SDS011;231;48.120;11.576;2023-07-09T04:45:28;9.60;;;7.03;;
489;SDS011;231;48.120;11.576;2023-07-09T04:47:55;7.23;;;6.83;;
489;SDS011;231;48.120;11.576;2023-07-09T04:50:22;6.53;;;6.23;;
489;SDS011;231;48.120;11.576;2023-07-09T04:52:49;8.50;;;6.70;;
489;SDS011;231;48.120;11.576;2023-07-09T04:55:18;7.70;;;6.40;;
489;SDS011;231;48.120;11.576;2023-07-09T04:57:51;7.33;;;6.00;;
489;SDS011;231;48.120;11.576;2023-07-09T05:00:22;7.93;;;6.83;;
489;SDS011;231;48.120;11.576;2023-07-09T05:02:49;8.00;;;7.10;;
489;SDS011;231;48.120;11.576;2023-07-09T05:05:16;7.03;;;6.60;;
489;SDS011;231;48.120;11.576;2023-07-09T05:07:43;7.33;;;6.73;;
489;SDS011;231;48.120;11.576;2023-07-09T05:10:10;8.00;;;7.40;;
489;SDS011;231;48.120;11.576;2023-07-09T05:12:48;7.50;;;6.30;;
489;SDS011;231;48.120;11.576;2023-07-09T05:15:21;8.80;;;5.53;;
489;SDS011;231;48.120;11.576;2023-07-09T05:17:49;7.33;;;5.87;;
489;SDS011;231;48.120;11.576;2023-07-09T05:20:17;7.13;;;6.17;;
489;SDS011;231;48.120;11.576;2023-07-09T05:22:44;7.37;;;6.70;;
489;SDS011;231;48.120;11.576;2023-07-09T05:25:11;6.87;;;6.47;;
489;SDS011;231;48.120;11.576;2023-07-09T05:27:40;6.57;;;5.70;;
489;SDS011;231;48.120;11.576;2023-07-09T05:30:11;7.20;;;6.17;;
489;SDS011;231;48.120;11.576;2023-07-09T05:32:38;6.80;;;6.00;;
489;SDS011;231;48.120;11.576;2023-07-09T05:35:05;5.20;;;4.90;;
489;SDS011;231;48.120;11.576;2023-07-09T05:37:34;6.87;;;5.40;;
489;SDS011;231;48.120;11.576;2023-07-09T05:40:02;5.93;;;5.63;;
489;SDS011;231;48.120;11.576;2023-07-09T05:42:30;6.00;;;5.70;;
489;SDS011;231;48.120;11.576;2023-07-09T05:44:57;8.73;;;6.30;;
489;SDS011;231;48.120;11.576;2023-07-09T05:47:25;5.90;;;5.60;;
489;SDS011;231;48.120;11.576;2023-07-09T05:49:52;7.00;;;6.40;;
489;SDS011;231;48.120;11.576;2023-07-09T05:52:20;5.40;;;5.00;;
489;SDS011;231;48.120;11.576;2023-07-09T05:54:48;7.40;;;5.30;;
489;SDS011;231;48.120;11.576;2023-07-09T05:57:16;5.70;;;5.40;;
489;SDS011;231;48.120;11.576;2023-07-09T05:59:44;5.60;;;5.30;;
489;SDS011;231;48.120;11.576;2023-07-09T06:02:11;5.33;;;5.00;;
489;SDS011;231;48.120;11.576;2023-07-09T06:04:40;5.43;;;5.13;;
489;SDS011;231;48.120;11.576;2023-07-09T06:07:07;5.80;;;5.23;;
489;SDS011;231;48.120;11.576;2023-07-09T06:09:34;5.27;;;4.97;;
489;SDS011;231;48.120;11.576;2023-07-09T06:12:02;5.40;;;5.10;;
489;SDS011;231;48.120;11.576;2023-07-09T06:14:30;7.70;;;4.87;;
489;SDS011;231;48.120;11.576;2023-07-09T06:16:58;5.60;;;5.20;;
489;SDS011;231;48.120;11.576;2023-07-09T06:19:25;5.30;;;5.00;;
489;SDS011;231;48.120;11.576;2023-07-09T06:21:53;5.83;;;5.53;;
489;SDS011;231;48.120;11.576;2023-07-09T06:24:21;5.70;;;5.07;;
489;SDS011;231;48.120;11.576;2023-07-09T06:26:48;5.33;;;5.03;;
489;SDS011;231;48.120;11.576;2023-07-09T06:29:15;4.97;;;4.67;;
489;SDS011;231;48.120;11.576;2023-07-09T06:31:42;8.20;;;4.60;;
489;SDS011;231;48.120;11.576;2023-07-09T06:34:09;6.30;;;5.40;;
489;SDS011;231;48.120;11.576;2023-07-09T06:36:41;6.30;;;5.13;;
489;SDS011;231;48.120;11.576;2023-07-09T06:39:14;7.63;;;4.33;;
489;SDS011;231;48.120;11.576;2023-07-09T06:41:41;4.80;;;4.50;;
489;SDS011;231;48.120;11.576;2023-07-09T06:44:09;4.87;;;4.60;;
489;SDS011;231;48.120;11.576;2023-07-09T06:46:36;4.03;;;3.83;;
489;SDS011;231;48.120;11.576;2023-07-09T06:49:03;5.13;;;4.80;;
489;SDS011;231;48.120;11.576;2023-07-09T06:51:30;5.97;;;5.63;;
489;SDS011;231;48.120;11.576;2023-07-09T06:53:57;4.83;;;4.57;;
489;SDS011;231;48.120;11.576;2023-07-09T06:56:25;5.63;;;4.67;;
489;SDS011;231;48.120;11.576;2023-07-09T06:58:55;5.67;;;5.13;;
489;SDS011;231;48.120;11.576;2023-07-09T07:01:22;4.57;;;4.27;;
489;SDS011;231;48.120;11.576;2023-07-09T07:03:49;5.37;;;5.07;;
489;SDS011;231;48.120;11.576;2023-07-09T07:06:16;4.77;;;4.47;;
489;SDS011;231;48.120;11.576;2023-07-09T07:08:43;5.90;;;5.60;;
489;SDS011;231;48.120;11.576;2023-07-09T07:11:10;4.60;;;4.30;;
489;SDS011;231;48.120;11.576;2023-07-09T07:17:00;4.83;;;4.30;;
489;SDS011;231;48.120;11.576;2023-07-09T07:19:27;5.53;;;5.23;;
489;SDS011;231;48.120;11.576;2023-07-09T07:21:54;5.70;;;4.80;;
489;SDS011;231;48.120;11.576;2023-07-09T07:27:09;5.13;;;4.83;;
489;SDS011;231;48.120;11.576;2023-07-09T07:29:36;4.63;;;4.33;;
489;SDS011;231;48.120;11.576;2023-07-09T07:32:05;5.00;;;4.70;;
489;SDS011;231;48.120;11.576;2023-07-09T07:34:33;4.10;;;3.90;;
489;SDS011;231;48.120;11.576;2023-07-09T07:37:00;4.93;;;4.50;;
489;SDS011;231;48.120;11.576;2023-07-09T07:39:27;4.60;;;4.30;;
489;SDS011;231;48.120;11.576;2023-07-09T07:41:54;4.00;;;3.80;;
489;SDS011;231;48.120;11.576;2023-07-09T07:44:21;4.70;;;4.40;;
489;SDS011;231;48.120;11.576;2023-07-09T07:46:48;4.13;;;3.80;;
489;SDS011;231;48.120;11.576;2023-07-09T07:49:16;5.17;;;4.87;;
489;SDS011;231;48.120;11.576;2023-07-09T07:51:43;5.87;;;4.23;;
489;SDS011;231;48.120;11.576;2023-07-09T07:54:10;4.77;;;4.47;;
489;SDS011;231;48.120;11.576;2023-07-09T07:56:36;5.00;;;4.70;;
489;SDS011;231;48.120;11.576;2023-07-09T07:59:03;5.30;;;5.00;;
489;SDS011;231;48.120;11.576;2023-07-09T08:01:30;5.00;;;4.70;;
489;SDS011;231;48.120;11.576;2023-07-09T08:04:00;5.33;;;5.03;;
489;SDS011;231;48.120;11.576;2023-07-09T08:06:36;5.50;;;4.87;;
489;SDS011;231;48.120;11.576;2023-07-09T08:09:25;5.73;;;5.43;;
489;SDS011;231;48.120;11.576;2023-07-09T08:11:52;5.40;;;5.10;;
489;SDS011;231;48.120;11.576;2023-07-09T08:14:20;6.03;;;5.73;;
489;SDS011;231;48.120;11.576;2023-07-09T08:16:47;8.30;;;5.67;;
489;SDS011;231;48.120;11.576;2023-07-09T08:19:18;4.77;;;4.47;;
489;SDS011;231;48.120;11.576;2023-07-09T08:22:03;4.77;;;4.47;;
489;SDS011;231;48.120;11.576;2023-07-09T08:24:32;4.87;;;4.57;;
489;SDS011;231;48.120;11.576;2023-07-09T08:27:22;5.37;;;5.07;;
489;SDS011;231;48.120;11.576;2023-07-09T08:29:51;5.17;;;4.87;;
489;SDS011;231;48.120;11.576;2023-07-09T08:32:39;4.40;;;4.10;;
489;SDS011;231;48.120;11.576;2023-07-09T08:35:19;6.10;;;5.53;;
489;SDS011;231;48.120;11.576;2023-07-09T08:38:00;4.90;;;4.60;;
489;SDS011;231;48.120;11.576;2023-07-09T08:40:29;4.90;;;4.60;;
489;SDS011;231;48.120;11.576;2023-07-09T08:50:02;4.63;;;4.33;;
489;SDS011;231;48.120;11.576;2023-07-09T08:59:17;5.60;;;5.30;;
489;SDS011;231;48.120;11.576;2023-07-09T09:01:48;5.23;;;4.93;;
489;SDS011;231;48.120;11.576;2023-07-09T09:05:09;5.40;;;5.10;;
489;SDS011;231;48.120;11.576;2023-07-09T09:11:26;8.00;;;4.83;;
489;SDS011;231;48.120;11.576;2023-07-09T09:17:29;4.47;;;4.17;;
489;SDS011;231;48.120;11.576;2023-07-09T09:20:07;4.53;;;4.23;;
489;SDS011;231;48.120;11.576;2023-07-09T09:23:25;4.27;;;4.00;;
489;SDS011;231;48.120;11.576;2023-07-09T10:08:17;4.37;;;4.07;;
489;SDS011;231;48.120;11.576;2023-07-09T10:11:02;4.70;;;4.40;;
489;SDS011;231;48.120;11.576;2023-07-09T10:13:39;4.97;;;4.67;;
489;SDS011;231;48.120;11.576;2023-07-09T10:16:10;4.70;;;4.40;;
489;SDS011;231;48.120;11.576;2023-07-09T10:18:46;5.10;;;4.80;;
489;SDS011;231;48.120;11.576;2023-07-09T10:21:21;3.80;;;3.60;;
489;SDS011;231;48.120;11.576;2023-07-09T10:24:06;4.93;;;4.63;;
489;SDS011;231;48.120;11.576;2023-07-09T10:26:49;4.13;;;3.80;;
489;SDS011;231;48.120;11.576;2023-07-09T10:29:31;5.67;;;4.30;;
489;SDS011;231;48.120;11.576;2023-07-09T10:32:10;5.60;;;4.30;;
489;SDS011;231;48.120;11.576;2023-07-09T10:34:47;5.93;;;5.63;;
489;SDS011;231;48.120;11.576;2023-07-09T10:37:25;4.67;;;4.37;;
489;SDS011;231;48.120;11.576;2023-07-09T10:40:07;4.83;;;4.53;;
489;SDS011;231;48.120;11.576;2023-07-09T10:42:39;5.03;;;4.00;;
489;SDS011;231;48.120;11.576;2023-07-09T10:45:10;4.60;;;4.30;;
489;SDS011;231;48.120;11.576;2023-07-09T10:47:39;5.93;;;4.07;;
489;SDS011;231;48.120;11.576;2023-07-09T10:50:11;5.23;;;4.97;;
489;SDS011;231;48.120;11.576;2023-07-09T10:52:44;4.80;;;4.50;;
489;SDS011;231;48.120;11.576;2023-07-09T10:55:16;5.03;;;4.70;;
489;SDS011;231;48.120;11.576;2023-07-09T10:57:52;4.33;;;3.87;;
489;SDS011;231;48.120;11.576;2023-07-09T11:00:25;3.70;;;3.50;;
489;SDS011;231;48.120;11.576;2023-07-09T11:03:03;4.37;;;4.03;;
489;SDS011;231;48.120;11.576;2023-07-09T11:05:35;4.13;;;3.90;;
489;SDS011;231;48.120;11.576;2023-07-09T11:08:04;5.57;;;4.67;;
489;SDS011;231;48.120;11.576;2023-07-09T11:10:39;5.20;;;4.57;;
489;SDS011;231;48.120;11.576;2023-07-09T11:13:10;6.10;;;4.20;;
489;SDS011;231;48.120;11.576;2023-07-09T11:15:42;4.43;;;4.13;;
489;SDS011;231;48.120;11.576;2023-07-09T11:18:13;5.17;;;4.87;;
489;SDS011;231;48.120;11.576;2023-07-09T11:20:45;4.63;;;4.33;;
489;SDS011;231;48.120;11.576;2023-07-09T11:23:17;5.63;;;5.23;;
489;SDS011;231;48.120;11.576;2023-07-09T11:25:46;4.90;;;4.60;;
489;SDS011;231;48.120;11.576;2023-07-09T11:28:14;4.60;;;4.30;;
489;SDS011;231;48.120;11.576;2023-07-09T11:30:45;5.00;;;4.70;;
489;SDS011;231;48.120;11.576;2023-07-09T11:33:18;7.27;;;4.90;;
489;SDS011;231;48.120;11.576;2023-07-09T11:35:48;5.67;;;4.40;;
489;SDS011;231;48.120;11.576;2023-07-09T11:38:17;5.20;;;4.90;;
489;SDS011;231;48.120;11.576;2023-07-09T11:40:47;4.57;;;4.27;;
489;SDS011;231;48.120;11.576;2023-07-09T11:43:28;6.47;;;4.50;;
489;SDS011;231;48.120;11.576;2023-07-09T11:45:59;7.67;;;5.30;;
489;SDS011;231;48.120;11.576;2023-07-09T11:48:36;4.80;;;4.17;;
489;SDS011;231;48.120;11.576;2023-07-09T11:51:08;5.17;;;4.73;;
489;SDS011;231;48.120;11.576;2023-07-09T11:53:41;5.30;;;4.77;;
489;SDS011;231;48.120;11.576;2023-07-09T11:56:12;4.17;;;3.93;;
489;SDS011;231;48.120;11.576;2023-07-09T11:58:47;4.43;;;4.13;;
489;SDS011;231;48.120;11.576;2023-07-09T12:01:15;5.10;;;4.80;;
489;SDS011;231;48.120;11.576;2023-07-09T12:03:44;6.53;;;5.13;;
489;SDS011;231;48.120;11.576;2023-07-09T12:06:16;4.37;;;4.07;;
489;SDS011;231;48.120;11.576;2023-07-09T12:08:44;4.43;;;4.13;;
489;SDS011;231;48.120;11.576;2023-07-09T12:11:19;4.17;;;3.93;;
489;SDS011;231;48.120;11.576;2023-07-09T12:13:47;6.70;;;5.00;;
489;SDS011;231;48.120;11.576;2023-07-09T12:16:28;5.67;;;4.77;;
489;SDS011;231;48.120;11.576;2023-07-09T12:19:01;7.50;;;5.80;;
489;SDS011;231;48.120;11.576;2023-07-09T12:21:31;4.10;;;3.70;;
489;SDS011;231;48.120;11.576;2023-07-09T12:24:12;5.30;;;4.57;;
489;SDS011;231;48.120;11.576;2023-07-09T12:26:48;4.63;;;4.33;;
489;SDS011;231;48.120;11.576;2023-07-09T12:29:15;5.03;;;4.70;;
489;SDS011;231;48.120;11.576;2023-07-09T12:31:42;4.60;;;4.33;;
489;SDS011;231;48.120;11.576;2023-07-09T12:34:10;5.20;;;4.90;;
489;SDS011;231;48.120;11.576;2023-07-09T12:36:40;5.00;;;4.70;;
489;SDS011;231;48.120;11.576;2023-07-09T12:39:10;4.83;;;4.53;;
489;SDS011;231;48.120;11.576;2023-07-09T12:41:39;6.67;;;4.93;;
489;SDS011;231;48.120;11.576;2023-07-09T12:44:13;5.47;;;4.33;;
489;SDS011;231;48.120;11.576;2023-07-09T12:46:42;5.73;;;5.43;;
489;SDS011;231;48.120;11.576;2023-07-09T12:49:12;6.13;;;5.00;;
489;SDS011;231;48.120;11.576;2023-07-09T12:51:47;4.90;;;4.60;;
489;SDS011;231;48.120;11.576;2023-07-09T12:54:15;4.90;;;4.60;;
489;SDS011;231;48.120;11.576;2023-07-09T12:56:43;4.33;;;4.00;;
489;SDS011;231;48.120;11.576;2023-07-09T12:59:16;6.83;;;5.13;;
489;SDS011;231;48.120;11.576;2023-07-09T13:01:48;4.63;;;3.90;;
489;SDS011;231;48.120;11.576;2023-07-09T13:04:16;4.87;;;4.57;;
489;SDS011;231;48.120;11.576;2023-07-09T13:06:44;4.73;;;4.33;;
489;SDS011;231;48.120;11.576;2023-07-09T13:09:14;6.10;;;4.60;;
489;SDS011;231;48.120;11.576;2023-07-09T13:35:08;4.47;;;4.17;;
489;SDS011;231;48.120;11.576;2023-07-09T13:41:37;5.33;;;4.83;;
489;SDS011;231;48.120;11.576;2023-07-09T13:48:09;7.00;;;5.20;;
489;SDS011;231;48.120;11.576;2023-07-09T13:54:38;6.17;;;5.00;;
489;SDS011;231;48.120;11.576;2023-07-09T13:57:23;6.37;;;4.77;;
489;SDS011;231;48.120;11.576;2023-07-09T14:00:02;5.17;;;4.87;;
489;SDS011;231;48.120;11.576;2023-07-09T14:21:23;10.13;;;4.90;;
489;SDS011;231;48.120;11.576;2023-07-09T14:24:20;4.87;;;4.57;;
489;SDS011;231;48.120;11.576;2023-07-09T14:26:52;6.60;;;5.20;;
489;SDS011;231;48.120;11.576;2023-07-09T14:29:34;5.70;;;5.40;;
489;SDS011;231;48.120;11.576;2023-07-09T14:32:09;8.30;;;4.80;;
489;SDS011;231;48.120;11.576;2023-07-09T14:35:14;6.70;;;6.30;;
489;SDS011;231;48.120;11.576;2023-07-09T14:37:49;6.57;;;4.60;;
489;SDS011;231;48.120;11.576;2023-07-09T14:44:02;5.33;;;5.07;;
489;SDS011;231;48.120;11.576;2023-07-09T14:46:49;5.50;;;4.97;;
489;SDS011;231;48.120;11.576;2023-07-09T14:49:27;5.57;;;4.50;;
489;SDS011;231;48.120;11.576;2023-07-09T14:55:18;5.90;;;4.60;;
489;SDS011;231;48.120;11.576;2023-07-09T14:58:41;5.20;;;4.90;;
489;SDS011;231;48.120;11.576;2023-07-09T15:07:13;4.93;;;4.43;;
489;SDS011;231;48.120;11.576;2023-07-09T15:08:27;6.97;;;4.90;;
489;SDS011;231;48.120;11.576;2023-07-09T15:24:30;5.17;;;4.50;;
489;SDS011;231;48.120;11.576;2023-07-09T15:27:11;5.33;;;4.80;;
489;SDS011;231;48.120;11.576;2023-07-09T15:29:45;5.43;;;4.70;;
489;SDS011;231;48.120;11.576;2023-07-09T15:32:29;6.57;;;5.13;;
489;SDS011;231;48.120;11.576;2023-07-09T15:34:57;10.20;;;4.90;;
489;SDS011;231;48.120;11.576;2023-07-09T15:38:03;4.30;;;4.00;;
489;SDS011;231;48.120;11.576;2023-07-09T15:40:42;5.50;;;4.43;;
489;SDS011;231;48.120;11.576;2023-07-09T15:43:47;5.27;;;4.97;;
489;SDS011;231;48.120;11.576;2023-07-09T15:46:20;5.90;;;5.60;;
489;SDS011;231;48.120;11.576;2023-07-09T15:48:53;4.70;;;4.40;;
489;SDS011;231;48.120;11.576;2023-07-09T15:51:33;4.90;;;4.60;;
489;SDS011;231;48.120;11.576;2023-07-09T15:54:07;5.00;;;4.70;;
489;SDS011;231;48.120;11.576;2023-07-09T15:56:42;5.00;;;4.70;;
489;SDS011;231;48.120;11.576;2023-07-09T15:59:25;4.47;;;4.17;;
489;SDS011;231;48.120;11.576;2023-07-09T16:02:00;4.80;;;4.50;;
489;SDS011;231;48.120;11.576;2023-07-09T16:04:28;6.00;;;5.10;;
489;SDS011;231;48.120;11.576;2023-07-09T16:07:07;5.10;;;4.47;;
489;SDS011;231;48.120;11.576;2023-07-09T16:09:45;4.70;;;4.40;;
489;SDS011;231;48.120;11.576;2023-07-09T16:12:24;4.70;;;4.40;;
489;SDS011;231;48.120;11.576;2023-07-09T16:14:52;5.63;;;5.30;;
489;SDS011;231;48.120;11.576;2023-07-09T16:17:24;6.33;;;4.87;;
489;SDS011;231;48.120;11.576;2023-07-09T16:19:54;5.20;;;4.90;;
489;SDS011;231;48.120;11.576;2023-07-09T16:22:27;5.03;;;4.57;;
489;SDS011;231;48.120;11.576;2023-07-09T16:25:15;8.97;;;5.13;;
489;SDS011;231;48.120;11.576;2023-07-09T16:27:44;5.80;;;5.43;;
489;SDS011;231;48.120;11.576;2023-07-09T16:30:13;6.37;;;5.77;;
489;SDS011;231;48.120;11.576;2023-07-09T16:32:46;8.87;;;5.67;;
489;SDS011;231;48.120;11.576;2023-07-09T16:35:22;4.97;;;4.73;;
489;SDS011;231;48.120;11.576;2023-07-09T16:38:08;5.93;;;5.10;;
489;SDS011;231;48.120;11.576;2023-07-09T16:40:40;7.47;;;5.53;;
489;SDS011;231;48.120;11.576;2023-07-09T16:43:22;4.70;;;4.40;;
489;SDS011;231;48.120;11.576;2023-07-09T16:45:53;5.87;;;5.07;;
489;SDS011;231;48.120;11.576;2023-07-09T16:48:23;8.33;;;5.80;;
489;SDS011;231;48.120;11.576;2023-07-09T16:50:54;5.30;;;4.00;;
489;SDS011;231;48.120;11.576;2023-07-09T16:53:30;5.50;;;4.40;;
489;SDS011;231;48.120;11.576;2023-07-09T16:56:01;8.57;;;4.70;;
489;SDS011;231;48.120;11.576;2023-07-09T16:58:32;4.73;;;4.43;;
489;SDS011;231;48.120;11.576;2023-07-09T17:01:05;4.87;;;4.57;;
489;SDS011;231;48.120;11.576;2023-07-09T17:03:33;4.40;;;4.17;;
489;SDS011;231;48.120;11.576;2023-07-09T17:06:00;6.00;;;5.43;;
489;SDS011;231;48.120;11.576;2023-07-09T17:08:39;7.53;;;4.93;;
489;SDS011;231;48.120;11.576;2023-07-09T17:11:33;5.47;;;4.63;;
489;SDS011;231;48.120;11.576;2023-07-09T17:14:17;5.40;;;4.57;;
489;SDS011;231;48.120;11.576;2023-07-09T17:16:44;5.27;;;4.73;;
489;SDS011;231;48.120;11.576;2023-07-09T17:19:11;7.93;;;4.70;;
489;SDS011;231;48.120;11.576;2023-07-09T17:21:44;5.10;;;4.23;;
489;SDS011;231;48.120;11.576;2023-07-09T17:24:18;5.93;;;5.30;;
489;SDS011;231;48.120;11.576;2023-07-09T17:26:50;5.43;;;4.90;;
489;SDS011;231;48.120;11.576;2023-07-09T17:29:21;4.43;;;3.77;;
489;SDS011;231;48.120;11.576;2023-07-09T17:31:48;7.03;;;4.77;;
489;SDS011;231;48.120;11.576;2023-07-09T17:34:18;4.87;;;4.60;;
489;SDS011;231;48.120;11.576;2023-07-09T17:36:48;7.20;;;5.13;;
489;SDS011;231;48.120;11.576;2023-07-09T17:39:18;6.80;;;5.47;;
489;SDS011;231;48.120;11.576;2023-07-09T17:41:51;5.73;;;4.23;;
489;SDS011;231;48.120;11.576;2023-07-09T17:44:20;6.40;;;4.30;;
489;SDS011;231;48.120;11.576;2023-07-09T17:46:49;4.07;;;3.87;;
489;SDS011;231;48.120;11.576;2023-07-09T17:49:34;9.07;;;5.73;;
489;SDS011;231;48.120;11.576;2023-07-09T17:52:12;5.87;;;5.63;;
489;SDS011;231;48.120;11.576;2023-07-09T17:54:48;4.63;;;4.33;;
489;SDS011;231;48.120;11.576;2023-07-09T18:00:28;4.60;;;4.30;;
489;SDS011;231;48.120;11.576;2023-07-09T18:02:55;5.60;;;5.17;;
489;SDS011;231;48.120;11.576;2023-07-09T18:05:27;5.87;;;4.70;;
489;SDS011;231;48.120;11.576;2023-07-09T18:07:56;5.20;;;4.60;;
489;SDS011;231;48.120;11.576;2023-07-09T18:10:28;6.53;;;4.77;;
489;SDS011;231;48.120;11.576;2023-07-09T18:13:00;5.20;;;4.83;;
489;SDS011;231;48.120;11.576;2023-07-09T18:15:43;6.50;;;4.47;;
489;SDS011;231;48.120;11.576;2023-07-09T18:18:37;8.07;;;5.13;;
489;SDS011;231;48.120;11.576;2023-07-09T18:21:27;4.77;;;4.23;;
489;SDS011;231;48.120;11.576;2023-07-09T18:23:55;5.83;;;4.70;;
489;SDS011;231;48.120;11.576;2023-07-09T18:26:31;5.20;;;4.93;;
489;SDS011;231;48.120;11.576;2023-07-09T18:29:00;6.47;;;4.90;;
489;SDS011;231;48.120;11.576;2023-07-09T18:31:34;7.47;;;5.40;;
489;SDS011;231;48.120;11.576;2023-07-09T18:34:01;4.33;;;4.00;;
489;SDS011;231;48.120;11.576;2023-07-09T18:36:28;7.60;;;5.40;;
489;SDS011;231;48.120;11.576;2023-07-09T18:38:55;6.40;;;4.83;;